sensor_id;sensor_type;location;lat;lon;timestamp;pressure;altitude;pressure_sealevel;temperature;humidity
9717;BME280;4897;43.570;27.832;2023-02-02T00:01:17;98864.38;;;2.52;100.00
9717;BME280;4897;43.570;27.832;2023-02-02T00:03:45;98885.63;;;2.65;100.00
9717;BME280;4897;43.570;27.832;2023-02-02T00:06:13;98896.94;;;2.51;100.00
9717;BME280;4897;43.570;27.832;2023-02-02T00:08:40;98898.06;;;2.63;100.00
9717;BME280;4897;43.570;27.832;2023-02-02T00:11:06;98898.06;;;2.63;100.00
9717;BME280;4897;43.570;27.832;2023-02-02T00:13:33;98893.91;;;2.59;100.00
9717;BME280;4897;43.570;27.832;2023-02-02T00:19:04;98891.97;;;2.76;100.00
9717;BME280;4897;43.570;27.832;2023-02-02T00:21:31;98880.19;;;2.82;100.00
9717;BME280;4897;43.570;27.832;2023-02-02T00:23:57;98889.75;;;2.84;100.00
9717;BME280;4897;43.570;27.832;2023-02-02T00:26:24;98875.13;;;2.79;100.00
9717;BME280;4897;43.570;27.832;2023-02-02T00:28:51;98881.97;;;2.97;100.00
9717;BME280;4897;43.570;27.832;2023-02-02T00:31:18;98885.19;;;3.02;100.00
9717;BME280;4897;43.570;27.832;2023-02-02T00:33:45;98870.28;;;3.01;100.00
9717;BME280;4897;43.570;27.832;2023-02-02T00:36:14;98886.63;;;3.07;100.00
9717;BME280;4897;43.570;27.832;2023-02-02T00:38:41;98874.41;;;2.91;100.00
9717;BME280;4897;43.570;27.832;2023-02-02T00:41:08;98883.03;;;3.08;100.00
9717;BME280;4897;43.570;27.832;2023-02-02T00:43:35;98873.63;;;3.18;100.00
9717;BME280;4897;43.570;27.832;2023-02-02T00:46:02;98872.78;;;3.18;100.00
9717;BME280;4897;43.570;27.832;2023-02-02T00:48:28;98862.41;;;3.15;100.00
9717;BME280;4897;43.570;27.832;2023-02-02T00:50:54;98862.03;;;3.21;100.00
9717;BME280;4897;43.570;27.832;2023-02-02T00:53:23;98864.47;;;3.10;100.00
9717;BME280;4897;43.570;27.832;2023-02-02T00:55:50;98858.38;;;2.94;100.00
9717;BME280;4897;43.570;27.832;2023-02-02T00:58:17;98873.66;;;3.03;100.00
9717;BME280;4897;43.570;27.832;2023-02-02T01:00:44;98866.72;;;3.02;100.00
9717;BME280;4897;43.570;27.832;2023-02-02T01:03:10;98870.50;;;3.12;100.00
9717;BME280;4897;43.570;27.832;2023-02-02T01:05:38;98874.00;;;3.12;100.00
9717;BME280;4897;43.570;27.832;2023-02-02T01:08:05;98871.16;;;3.15;100.00
9717;BME280;4897;43.570;27.832;2023-02-02T01:10:33;98864.84;;;3.18;100.00
9717;BME280;4897;43.570;27.832;2023-02-02T01:13:00;98864.19;;;3.14;100.00
9717;BME280;4897;43.570;27.832;2023-02-02T01:15:27;98868.03;;;3.09;100.00
9717;BME280;4897;43.570;27.832;2023-02-02T01:17:55;98849.38;;;3.12;100.00
9717;BME280;4897;43.570;27.832;2023-02-02T01:20:21;98845.75;;;3.13;100.00
9717;BME280;4897;43.570;27.832;2023-02-02T01:22:49;98847.75;;;3.09;100.00
9717;BME280;4897;43.570;27.832;2023-02-02T01:25:16;98854.06;;;3.07;100.00
9717;BME280;4897;43.570;27.832;2023-02-02T01:27:44;98844.81;;;3.00;100.00
9717;BME280;4897;43.570;27.832;2023-02-02T01:30:11;98847.25;;;3.03;100.00
9717;BME280;4897;43.570;27.832;2023-02-02T01:32:39;98848.00;;;2.91;100.00
9717;BME280;4897;43.570;27.832;2023-02-02T01:35:06;98859.53;;;3.04;100.00
9717;BME280;4897;43.570;27.832;2023-02-02T01:37:34;98848.97;;;3.04;100.00
9717;BME280;4897;43.570;27.832;2023-02-02T01:40:01;98775.91;;;2.61;100.00
9717;BME280;4897;43.570;27.832;2023-02-02T01:42:28;98836.13;;;2.98;100.00
9717;BME280;4897;43.570;27.832;2023-02-02T01:45:27;98832.66;;;2.97;100.00
9717;BME280;4897;43.570;27.832;2023-02-02T01:47:57;98841.03;;;2.90;100.00
9717;BME280;4897;43.570;27.832;2023-02-02T01:50:27;98825.34;;;2.87;100.00
9717;BME280;4897;43.570;27.832;2023-02-02T01:52:57;98835.00;;;3.02;100.00
9717;BME280;4897;43.570;27.832;2023-02-02T01:55:27;98826.13;;;3.03;100.00
9717;BME280;4897;43.570;27.832;2023-02-02T01:57:57;98797.34;;;2.84;100.00
9717;BME280;4897;43.570;27.832;2023-02-02T02:00:26;98816.03;;;2.95;100.00
9717;BME280;4897;43.570;27.832;2023-02-02T02:02:56;98818.31;;;3.01;100.00
9717;BME280;4897;43.570;27.832;2023-02-02T02:05:27;98819.41;;;2.83;100.00
9717;BME280;4897;43.570;27.832;2023-02-02T02:08:00;98829.91;;;2.99;100.00
9717;BME280;4897;43.570;27.832;2023-02-02T02:10:27;98830.09;;;2.96;100.00
9717;BME280;4897;43.570;27.832;2023-02-02T02:12:54;98833.00;;;2.91;100.00
9717;BME280;4897;43.570;27.832;2023-02-02T02:15:21;98833.28;;;2.87;100.00
9717;BME280;4897;43.570;27.832;2023-02-02T02:18:14;98821.66;;;2.75;100.00
9717;BME280;4897;43.570;27.832;2023-02-02T02:21:21;98827.56;;;2.65;100.00
9717;BME280;4897;43.570;27.832;2023-02-02T02:30:37;98850.81;;;2.42;100.00
9717;BME280;4897;43.570;27.832;2023-02-02T02:33:10;98848.59;;;2.51;100.00
9717;BME280;4897;43.570;27.832;2023-02-02T02:35:41;98835.34;;;2.36;100.00
9717;BME280;4897;43.570;27.832;2023-02-02T02:38:15;98845.38;;;2.46;100.00
9717;BME280;4897;43.570;27.832;2023-02-02T02:40:48;98829.66;;;2.44;100.00
9717;BME280;4897;43.570;27.832;2023-02-02T02:43:20;98830.38;;;2.62;100.00
9717;BME280;4897;43.570;27.832;2023-02-02T02:45:49;98829.69;;;2.58;100.00
9717;BME280;4897;43.570;27.832;2023-02-02T02:48:18;98821.41;;;2.34;100.00
9717;BME280;4897;43.570;27.832;2023-02-02T02:50:45;98822.34;;;2.33;100.00
9717;BME280;4897;43.570;27.832;2023-02-02T02:53:15;98829.25;;;2.20;100.00
9717;BME280;4897;43.570;27.832;2023-02-02T02:55:47;98829.25;;;2.20;100.00
9717;BME280;4897;43.570;27.832;2023-02-02T02:58:20;98815.66;;;2.12;100.00
9717;BME280;4897;43.570;27.832;2023-02-02T03:00:59;98813.44;;;2.20;100.00
9717;BME280;4897;43.570;27.832;2023-02-02T03:03:39;98819.28;;;2.25;100.00
9717;BME280;4897;43.570;27.832;2023-02-02T03:06:12;98812.81;;;2.31;100.00
9717;BME280;4897;43.570;27.832;2023-02-02T03:08:44;98822.25;;;2.19;100.00
9717;BME280;4897;43.570;27.832;2023-02-02T03:11:14;98818.94;;;2.16;100.00
9717;BME280;4897;43.570;27.832;2023-02-02T03:13:42;98815.09;;;2.21;100.00
9717;BME280;4897;43.570;27.832;2023-02-02T03:16:10;98817.69;;;2.23;100.00
9717;BME280;4897;43.570;27.832;2023-02-02T03:18:38;98816.56;;;2.27;100.00
9717;BME280;4897;43.570;27.832;2023-02-02T03:21:05;98817.50;;;2.26;100.00
9717;BME280;4897;43.570;27.832;2023-02-02T03:23:32;98684.56;;;1.38;100.00
9717;BME280;4897;43.570;27.832;2023-02-02T03:25:59;98805.31;;;2.23;100.00
9717;BME280;4897;43.570;27.832;2023-02-02T03:28:27;98809.66;;;2.24;100.00
9717;BME280;4897;43.570;27.832;2023-02-02T03:30:56;98776.69;;;2.02;100.00
9717;BME280;4897;43.570;27.832;2023-02-02T03:33:24;98731.81;;;1.72;100.00
9717;BME280;4897;43.570;27.832;2023-02-02T03:35:52;98810.03;;;2.18;100.00
9717;BME280;4897;43.570;27.832;2023-02-02T03:38:19;98803.38;;;2.11;100.00
9717;BME280;4897;43.570;27.832;2023-02-02T03:40:46;98811.91;;;2.16;100.00
9717;BME280;4897;43.570;27.832;2023-02-02T03:43:19;98812.41;;;2.07;100.00
9717;BME280;4897;43.570;27.832;2023-02-02T03:45:46;98808.84;;;2.08;100.00
9717;BME280;4897;43.570;27.832;2023-02-02T03:48:12;98808.16;;;2.05;100.00
9717;BME280;4897;43.570;27.832;2023-02-02T03:50:39;98777.81;;;1.82;100.00
9717;BME280;4897;43.570;27.832;2023-02-02T03:53:07;98785.72;;;1.82;100.00
9717;BME280;4897;43.570;27.832;2023-02-02T03:55:34;98816.84;;;1.91;100.00
9717;BME280;4897;43.570;27.832;2023-02-02T03:58:03;98795.59;;;1.79;100.00
9717;BME280;4897;43.570;27.832;2023-02-02T04:00:30;98823.22;;;1.87;100.00
9717;BME280;4897;43.570;27.832;2023-02-02T04:02:57;98823.38;;;1.84;100.00
9717;BME280;4897;43.570;27.832;2023-02-02T04:05:24;98810.19;;;1.84;100.00
9717;BME280;4897;43.570;27.832;2023-02-02T04:07:52;98813.78;;;1.83;100.00
9717;BME280;4897;43.570;27.832;2023-02-02T04:10:20;98826.53;;;1.75;100.00
9717;BME280;4897;43.570;27.832;2023-02-02T04:12:47;98826.69;;;1.72;100.00
9717;BME280;4897;43.570;27.832;2023-02-02T04:15:15;98818.03;;;1.70;100.00
9717;BME280;4897;43.570;27.832;2023-02-02T04:17:42;98802.69;;;1.61;100.00
9717;BME280;4897;43.570;27.832;2023-02-02T04:20:10;98798.28;;;1.61;100.00
9717;BME280;4897;43.570;27.832;2023-02-02T04:22:37;98820.91;;;1.66;100.00
9717;BME280;4897;43.570;27.832;2023-02-02T04:25:05;98814.84;;;1.63;100.00
9717;BME280;4897;43.570;27.832;2023-02-02T04:27:33;98818.69;;;1.58;100.00
9717;BME280;4897;43.570;27.832;2023-02-02T04:30:00;98832.97;;;1.70;100.00
9717;BME280;4897;43.570;27.832;2023-02-02T04:32:27;98827.19;;;1.63;100.00
9717;BME280;4897;43.570;27.832;2023-02-02T04:34:53;98824.81;;;1.58;100.00
9717;BME280;4897;43.570;27.832;2023-02-02T04:37:20;98823.97;;;1.58;100.00
9717;BME280;4897;43.570;27.832;2023-02-02T04:39:47;98821.38;;;1.56;100.00
9717;BME280;4897;43.570;27.832;2023-02-02T04:42:15;98847.88;;;1.71;100.00
9717;BME280;4897;43.570;27.832;2023-02-02T04:44:43;98819.19;;;1.49;100.00
9717;BME280;4897;43.570;27.832;2023-02-02T04:47:10;98869.88;;;1.70;100.00
9717;BME280;4897;43.570;27.832;2023-02-02T04:49:37;98849.50;;;1.73;100.00
9717;BME280;4897;43.570;27.832;2023-02-02T04:52:04;98855.25;;;1.64;100.00
9717;BME280;4897;43.570;27.832;2023-02-02T04:54:31;98849.16;;;1.46;100.00
9717;BME280;4897;43.570;27.832;2023-02-02T04:56:58;98835.97;;;1.46;100.00
9717;BME280;4897;43.570;27.832;2023-02-02T04:59:27;98865.94;;;1.61;100.00
9717;BME280;4897;43.570;27.832;2023-02-02T05:01:55;98856.59;;;1.55;100.00
9717;BME280;4897;43.570;27.832;2023-02-02T05:04:22;98851.16;;;1.58;100.00
9717;BME280;4897;43.570;27.832;2023-02-02T05:06:49;98854.03;;;1.54;100.00
9717;BME280;4897;43.570;27.832;2023-02-02T05:09:16;98853.19;;;1.53;100.00
9717;BME280;4897;43.570;27.832;2023-02-02T05:11:42;98854.28;;;1.49;100.00
9717;BME280;4897;43.570;27.832;2023-02-02T05:14:10;98872.88;;;1.46;100.00
9717;BME280;4897;43.570;27.832;2023-02-02T05:16:37;98843.31;;;1.41;100.00
9717;BME280;4897;43.570;27.832;2023-02-02T05:19:06;98860.41;;;1.50;100.00
9717;BME280;4897;43.570;27.832;2023-02-02T05:21:32;98846.31;;;1.34;100.00
9717;BME280;4897;43.570;27.832;2023-02-02T05:23:59;98859.78;;;1.45;100.00
9717;BME280;4897;43.570;27.832;2023-02-02T05:26:28;98867.44;;;1.49;100.00
9717;BME280;4897;43.570;27.832;2023-02-02T05:28:55;98852.66;;;1.47;100.00
9717;BME280;4897;43.570;27.832;2023-02-02T05:31:22;98879.69;;;1.50;100.00
9717;BME280;4897;43.570;27.832;2023-02-02T05:33:49;98833.66;;;1.25;100.00
9717;BME280;4897;43.570;27.832;2023-02-02T05:36:17;98871.72;;;1.52;100.00
9717;BME280;4897;43.570;27.832;2023-02-02T05:38:44;98885.13;;;1.47;100.00
9717;BME280;4897;43.570;27.832;2023-02-02T05:41:11;98860.25;;;1.36;100.00
9717;BME280;4897;43.570;27.832;2023-02-02T05:43:38;98880.38;;;1.54;100.00
9717;BME280;4897;43.570;27.832;2023-02-02T05:46:05;98879.44;;;1.55;100.00
9717;BME280;4897;43.570;27.832;2023-02-02T05:48:31;98883.47;;;1.62;100.00
9717;BME280;4897;43.570;27.832;2023-02-02T05:51:02;98876.66;;;1.58;100.00
9717;BME280;4897;43.570;27.832;2023-02-02T05:53:32;98877.88;;;1.68;100.00
9717;BME280;4897;43.570;27.832;2023-02-02T05:55:59;98884.13;;;1.66;100.00
9717;BME280;4897;43.570;27.832;2023-02-02T05:58:26;98871.06;;;1.64;100.00
9717;BME280;4897;43.570;27.832;2023-02-02T06:00:53;98847.25;;;1.66;100.00
9717;BME280;4897;43.570;27.832;2023-02-02T06:03:20;98887.59;;;1.83;100.00
9717;BME280;4897;43.570;27.832;2023-02-02T06:05:47;98876.88;;;1.86;100.00
9717;BME280;4897;43.570;27.832;2023-02-02T06:08:14;98869.03;;;1.85;100.00
9717;BME280;4897;43.570;27.832;2023-02-02T06:10:42;98879.59;;;2.00;100.00
9717;BME280;4897;43.570;27.832;2023-02-02T06:13:09;98876.03;;;2.01;100.00
9717;BME280;4897;43.570;27.832;2023-02-02T06:15:36;98895.09;;;2.06;100.00
9717;BME280;4897;43.570;27.832;2023-02-02T06:18:03;98883.53;;;2.24;100.00
9717;BME280;4897;43.570;27.832;2023-02-02T06:20:32;98884.22;;;2.12;100.00
9717;BME280;4897;43.570;27.832;2023-02-02T06:23:00;98875.09;;;2.18;100.00
9717;BME280;4897;43.570;27.832;2023-02-02T06:25:27;98865.25;;;2.06;100.00
9717;BME280;4897;43.570;27.832;2023-02-02T06:27:56;98876.88;;;2.17;100.00
9717;BME280;4897;43.570;27.832;2023-02-02T06:30:23;98878.16;;;2.26;100.00
9717;BME280;4897;43.570;27.832;2023-02-02T06:32:51;98883.19;;;2.30;100.00
9717;BME280;4897;43.570;27.832;2023-02-02T06:35:18;98886.25;;;2.38;100.00
9717;BME280;4897;43.570;27.832;2023-02-02T06:37:44;98881.16;;;2.35;100.00
9717;BME280;4897;43.570;27.832;2023-02-02T06:40:11;98885.97;;;2.43;100.00
9717;BME280;4897;43.570;27.832;2023-02-02T06:42:38;98893.41;;;2.52;100.00
9717;BME280;4897;43.570;27.832;2023-02-02T06:45:08;98882.31;;;2.46;100.00
9717;BME280;4897;43.570;27.832;2023-02-02T06:47:35;98894.16;;;2.54;100.00
9717;BME280;4897;43.570;27.832;2023-02-02T06:50:03;98885.19;;;2.57;100.00
9717;BME280;4897;43.570;27.832;2023-02-02T06:52:29;98887.56;;;2.61;100.00
9717;BME280;4897;43.570;27.832;2023-02-02T06:54:56;98879.59;;;2.63;100.00
9717;BME280;4897;43.570;27.832;2023-02-02T06:57:23;98852.94;;;2.52;100.00
9717;BME280;4897;43.570;27.832;2023-02-02T06:59:50;98868.84;;;2.66;100.00
9717;BME280;4897;43.570;27.832;2023-02-02T07:02:18;98893.00;;;2.74;100.00
9717;BME280;4897;43.570;27.832;2023-02-02T07:04:47;98889.09;;;2.81;100.00
9717;BME280;4897;43.570;27.832;2023-02-02T07:07:14;98899.81;;;2.78;100.00
9717;BME280;4897;43.570;27.832;2023-02-02T07:09:41;98883.91;;;2.79;100.00
9717;BME280;4897;43.570;27.832;2023-02-02T07:12:08;98885.38;;;3.13;100.00
9717;BME280;4897;43.570;27.832;2023-02-02T07:14:35;98883.94;;;3.23;100.00
9717;BME280;4897;43.570;27.832;2023-02-02T07:17:02;98890.25;;;3.20;100.00
9717;BME280;4897;43.570;27.832;2023-02-02T07:19:30;98891.38;;;3.16;100.00
9717;BME280;4897;43.570;27.832;2023-02-02T07:21:58;98893.16;;;3.16;100.00
9717;BME280;4897;43.570;27.832;2023-02-02T07:24:24;98862.28;;;3.02;100.00
9717;BME280;4897;43.570;27.832;2023-02-02T07:26:53;98908.97;;;3.32;100.00
9717;BME280;4897;43.570;27.832;2023-02-02T07:29:20;98910.53;;;3.34;100.00
9717;BME280;4897;43.570;27.832;2023-02-02T07:31:47;98893.75;;;3.35;100.00
9717;BME280;4897;43.570;27.832;2023-02-02T07:34:14;98906.59;;;3.41;100.00
9717;BME280;4897;43.570;27.832;2023-02-02T07:36:42;98899.06;;;3.49;100.00
9717;BME280;4897;43.570;27.832;2023-02-02T07:39:10;98910.59;;;3.62;100.00
9717;BME280;4897;43.570;27.832;2023-02-02T07:41:37;98901.16;;;3.72;100.00
9717;BME280;4897;43.570;27.832;2023-02-02T07:44:04;98913.06;;;3.79;100.00
9717;BME280;4897;43.570;27.832;2023-02-02T07:46:32;98884.63;;;3.69;100.00
9717;BME280;4897;43.570;27.832;2023-02-02T07:48:58;98909.78;;;3.90;100.00
9717;BME280;4897;43.570;27.832;2023-02-02T07:51:25;98907.38;;;3.99;100.00
9717;BME280;4897;43.570;27.832;2023-02-02T07:53:54;98900.22;;;4.01;100.00
9717;BME280;4897;43.570;27.832;2023-02-02T07:56:24;98909.09;;;4.15;100.00
9717;BME280;4897;43.570;27.832;2023-02-02T07:58:52;98917.28;;;4.24;100.00
9717;BME280;4897;43.570;27.832;2023-02-02T08:01:20;98886.19;;;4.14;100.00
9717;BME280;4897;43.570;27.832;2023-02-02T08:03:48;98922.34;;;4.41;100.00
9717;BME280;4897;43.570;27.832;2023-02-02T08:06:18;98930.94;;;4.45;100.00
9717;BME280;4897;43.570;27.832;2023-02-02T08:08:45;98924.97;;;4.55;100.00
9717;BME280;4897;43.570;27.832;2023-02-02T08:11:17;98911.25;;;4.63;100.00
9717;BME280;4897;43.570;27.832;2023-02-02T08:13:47;98905.28;;;4.59;100.00
9717;BME280;4897;43.570;27.832;2023-02-02T08:16:14;98911.72;;;4.82;100.00
9717;BME280;4897;43.570;27.832;2023-02-02T08:18:41;98914.75;;;4.90;100.00
9717;BME280;4897;43.570;27.832;2023-02-02T08:21:09;98912.44;;;4.98;100.00
9717;BME280;4897;43.570;27.832;2023-02-02T08:23:37;98930.72;;;5.15;100.00
9717;BME280;4897;43.570;27.832;2023-02-02T08:26:07;98915.47;;;5.19;100.00
9717;BME280;4897;43.570;27.832;2023-02-02T08:28:38;98916.50;;;5.16;100.00
9717;BME280;4897;43.570;27.832;2023-02-02T08:31:07;98939.47;;;5.30;100.00
9717;BME280;4897;43.570;27.832;2023-02-02T08:33:34;98924.94;;;5.35;100.00
9717;BME280;4897;43.570;27.832;2023-02-02T08:36:02;98903.28;;;5.29;100.00
9717;BME280;4897;43.570;27.832;2023-02-02T08:38:29;98913.06;;;5.41;100.00
9717;BME280;4897;43.570;27.832;2023-02-02T08:41:03;98922.31;;;5.60;100.00
9717;BME280;4897;43.570;27.832;2023-02-02T08:43:30;98889.84;;;5.44;100.00
9717;BME280;4897;43.570;27.832;2023-02-02T08:45:58;98900.88;;;5.63;100.00
9717;BME280;4897;43.570;27.832;2023-02-02T08:48:26;98945.06;;;5.90;100.00
9717;BME280;4897;43.570;27.832;2023-02-02T08:50:53;98937.75;;;5.93;100.00
9717;BME280;4897;43.570;27.832;2023-02-02T08:53:21;98936.78;;;6.07;100.00
9717;BME280;4897;43.570;27.832;2023-02-02T08:55:48;98918.09;;;6.08;100.00
9717;BME280;4897;43.570;27.832;2023-02-02T08:58:22;98928.06;;;6.30;100.00
9717;BME280;4897;43.570;27.832;2023-02-02T09:00:49;98930.88;;;6.52;100.00
9717;BME280;4897;43.570;27.832;2023-02-02T09:03:18;98934.16;;;6.43;100.00
9717;BME280;4897;43.570;27.832;2023-02-02T09:05:45;98937.72;;;6.67;100.00
9717;BME280;4897;43.570;27.832;2023-02-02T09:08:12;98909.50;;;7.24;100.00
9717;BME280;4897;43.570;27.832;2023-02-02T09:10:38;98938.59;;;8.73;100.00
9717;BME280;4897;43.570;27.832;2023-02-02T09:13:05;98926.75;;;10.02;100.00
9717;BME280;4897;43.570;27.832;2023-02-02T09:15:32;98924.69;;;10.36;100.00
9717;BME280;4897;43.570;27.832;2023-02-02T09:17:59;98920.53;;;10.53;100.00
9717;BME280;4897;43.570;27.832;2023-02-02T09:20:27;98917.78;;;10.64;100.00
9717;BME280;4897;43.570;27.832;2023-02-02T09:22:54;98919.13;;;10.58;100.00
9717;BME280;4897;43.570;27.832;2023-02-02T09:25:22;98885.19;;;11.37;100.00
9717;BME280;4897;43.570;27.832;2023-02-02T09:27:49;98919.69;;;11.59;96.68
9717;BME280;4897;43.570;27.832;2023-02-02T09:30:16;98890.53;;;11.27;100.00
9717;BME280;4897;43.570;27.832;2023-02-02T09:32:43;98892.38;;;11.36;98.62
9717;BME280;4897;43.570;27.832;2023-02-02T09:35:10;98886.31;;;11.53;97.13
9717;BME280;4897;43.570;27.832;2023-02-02T09:37:38;98870.22;;;11.44;100.00
9717;BME280;4897;43.570;27.832;2023-02-02T09:40:06;98885.31;;;11.73;90.46
9717;BME280;4897;43.570;27.832;2023-02-02T09:42:43;98873.50;;;11.47;98.06
9717;BME280;4897;43.570;27.832;2023-02-02T09:45:21;98867.44;;;11.36;96.32
9717;BME280;4897;43.570;27.832;2023-02-02T09:47:54;98861.06;;;11.46;93.75
9717;BME280;4897;43.570;27.832;2023-02-02T09:50:38;98844.53;;;12.26;85.01
9717;BME280;4897;43.570;27.832;2023-02-02T09:53:23;98850.72;;;11.89;83.45
9717;BME280;4897;43.570;27.832;2023-02-02T09:55:54;98840.94;;;13.24;77.73
9717;BME280;4897;43.570;27.832;2023-02-02T09:58:25;98824.25;;;13.82;68.66
9717;BME280;4897;43.570;27.832;2023-02-02T10:00:58;98824.25;;;13.82;63.83
9717;BME280;4897;43.570;27.832;2023-02-02T10:03:30;98825.97;;;13.22;71.06
9717;BME280;4897;43.570;27.832;2023-02-02T10:06:05;98821.97;;;13.69;67.70
9717;BME280;4897;43.570;27.832;2023-02-02T10:08:42;98836.13;;;12.11;81.36
9717;BME280;4897;43.570;27.832;2023-02-02T10:11:28;98828.28;;;10.96;95.80
9717;BME280;4897;43.570;27.832;2023-02-02T10:14:00;98839.09;;;11.33;98.48
9717;BME280;4897;43.570;27.832;2023-02-02T10:16:29;98832.41;;;12.22;87.81
9717;BME280;4897;43.570;27.832;2023-02-02T10:18:59;98840.09;;;12.07;90.48
9717;BME280;4897;43.570;27.832;2023-02-02T10:21:33;98813.72;;;12.02;85.38
9717;BME280;4897;43.570;27.832;2023-02-02T10:24:12;98839.22;;;11.70;88.72
9717;BME280;4897;43.570;27.832;2023-02-02T10:26:45;98817.22;;;12.40;79.18
9717;BME280;4897;43.570;27.832;2023-02-02T10:29:16;98832.91;;;12.62;78.09
9717;BME280;4897;43.570;27.832;2023-02-02T10:31:53;98809.88;;;13.04;77.77
9717;BME280;4897;43.570;27.832;2023-02-02T10:34:30;98823.19;;;12.34;79.49
9717;BME280;4897;43.570;27.832;2023-02-02T10:37:09;98826.63;;;12.17;81.70
9717;BME280;4897;43.570;27.832;2023-02-02T10:39:58;98844.78;;;12.32;85.09
9717;BME280;4897;43.570;27.832;2023-02-02T10:42:34;98837.53;;;10.54;100.00
9717;BME280;4897;43.570;27.832;2023-02-02T10:45:12;98845.44;;;10.65;100.00
9717;BME280;4897;43.570;27.832;2023-02-02T10:47:40;98833.03;;;10.45;100.00
9717;BME280;4897;43.570;27.832;2023-02-02T10:50:14;98853.44;;;10.16;100.00
9717;BME280;4897;43.570;27.832;2023-02-02T10:52:45;98840.06;;;11.70;100.00
9717;BME280;4897;43.570;27.832;2023-02-02T10:55:21;98845.31;;;12.63;85.35
9717;BME280;4897;43.570;27.832;2023-02-02T10:57:59;98838.25;;;10.16;100.00
9717;BME280;4897;43.570;27.832;2023-02-02T11:00:31;98839.31;;;10.34;100.00
9717;BME280;4897;43.570;27.832;2023-02-02T11:03:01;98831.84;;;11.81;100.00
9717;BME280;4897;43.570;27.832;2023-02-02T11:05:31;98808.44;;;13.10;88.48
9717;BME280;4897;43.570;27.832;2023-02-02T11:08:17;98829.47;;;12.15;93.12
9717;BME280;4897;43.570;27.832;2023-02-02T11:10:53;98825.63;;;11.90;100.00
9717;BME280;4897;43.570;27.832;2023-02-02T11:13:26;98812.78;;;11.19;100.00
9717;BME280;4897;43.570;27.832;2023-02-02T11:16:22;98833.28;;;10.52;100.00
9717;BME280;4897;43.570;27.832;2023-02-02T11:18:49;98815.72;;;9.79;100.00
9717;BME280;4897;43.570;27.832;2023-02-02T11:21:21;98824.94;;;9.65;100.00
9717;BME280;4897;43.570;27.832;2023-02-02T11:23:54;98813.16;;;9.27;100.00
9717;BME280;4897;43.570;27.832;2023-02-02T11:26:24;98820.63;;;9.74;100.00
9717;BME280;4897;43.570;27.832;2023-02-02T11:28:53;98814.75;;;9.80;100.00
9717;BME280;4897;43.570;27.832;2023-02-02T11:31:35;98805.06;;;10.78;100.00
9717;BME280;4897;43.570;27.832;2023-02-02T11:34:09;98801.50;;;10.87;100.00
9717;BME280;4897;43.570;27.832;2023-02-02T11:36:38;98805.69;;;10.32;100.00
9717;BME280;4897;43.570;27.832;2023-02-02T11:39:15;98815.72;;;10.09;100.00
9717;BME280;4897;43.570;27.832;2023-02-02T11:41:44;98785.03;;;10.72;98.99
9717;BME280;4897;43.570;27.832;2023-02-02T11:44:20;98804.03;;;11.36;92.82
9717;BME280;4897;43.570;27.832;2023-02-02T11:46:50;98797.75;;;12.11;83.57
9717;BME280;4897;43.570;27.832;2023-02-02T11:49:19;98783.09;;;12.95;77.25
9717;BME280;4897;43.570;27.832;2023-02-02T11:51:56;98792.09;;;12.41;79.22
9717;BME280;4897;43.570;27.832;2023-02-02T11:54:26;98773.03;;;12.17;85.84
9717;BME280;4897;43.570;27.832;2023-02-02T11:56:59;98779.75;;;11.66;91.66
9717;BME280;4897;43.570;27.832;2023-02-02T11:59:28;98754.75;;;11.10;100.00
9717;BME280;4897;43.570;27.832;2023-02-02T12:02:24;98758.44;;;10.32;100.00
9717;BME280;4897;43.570;27.832;2023-02-02T12:04:52;98720.50;;;9.29;100.00
9717;BME280;4897;43.570;27.832;2023-02-02T12:07:24;98785.41;;;9.09;100.00
9717;BME280;4897;43.570;27.832;2023-02-02T12:09:52;98725.50;;;8.71;100.00
9717;BME280;4897;43.570;27.832;2023-02-02T12:12:39;98780.72;;;9.22;100.00
9717;BME280;4897;43.570;27.832;2023-02-02T12:15:19;98763.53;;;9.15;100.00
9717;BME280;4897;43.570;27.832;2023-02-02T12:17:51;98756.84;;;9.00;100.00
9717;BME280;4897;43.570;27.832;2023-02-02T12:20:34;98765.09;;;8.97;100.00
9717;BME280;4897;43.570;27.832;2023-02-02T12:23:14;98763.00;;;9.00;100.00
9717;BME280;4897;43.570;27.832;2023-02-02T12:25:57;98737.84;;;8.93;100.00
9717;BME280;4897;43.570;27.832;2023-02-02T12:28:49;98690.13;;;8.49;100.00
9717;BME280;4897;43.570;27.832;2023-02-02T12:31:27;98765.88;;;9.08;100.00
9717;BME280;4897;43.570;27.832;2023-02-02T12:34:05;98750.78;;;9.18;100.00
9717;BME280;4897;43.570;27.832;2023-02-02T12:36:44;98772.72;;;9.22;100.00
9717;BME280;4897;43.570;27.832;2023-02-02T12:39:20;98758.56;;;9.31;100.00
9717;BME280;4897;43.570;27.832;2023-02-02T12:42:16;98760.53;;;9.29;100.00
9717;BME280;4897;43.570;27.832;2023-02-02T12:45:00;98753.13;;;9.12;100.00
9717;BME280;4897;43.570;27.832;2023-02-02T12:47:33;98761.59;;;9.17;100.00
9717;BME280;4897;43.570;27.832;2023-02-02T12:50:15;98710.72;;;9.09;100.00
9717;BME280;4897;43.570;27.832;2023-02-02T12:53:21;98759.38;;;9.22;100.00
9717;BME280;4897;43.570;27.832;2023-02-02T12:55:58;98763.34;;;9.27;100.00
9717;BME280;4897;43.570;27.832;2023-02-02T12:58:34;98756.91;;;9.30;100.00
9717;BME280;4897;43.570;27.832;2023-02-02T13:01:12;98744.09;;;9.03;100.00
9717;BME280;4897;43.570;27.832;2023-02-02T13:03:56;98754.09;;;9.11;100.00
9717;BME280;4897;43.570;27.832;2023-02-02T13:06:42;98751.78;;;8.97;100.00
9717;BME280;4897;43.570;27.832;2023-02-02T13:09:18;98742.72;;;8.67;100.00
9717;BME280;4897;43.570;27.832;2023-02-02T13:11:48;98750.81;;;8.66;100.00
9717;BME280;4897;43.570;27.832;2023-02-02T13:14:21;98734.94;;;8.44;100.00
9717;BME280;4897;43.570;27.832;2023-02-02T13:16:54;98753.41;;;8.56;100.00
9717;BME280;4897;43.570;27.832;2023-02-02T13:19:28;98757.56;;;8.49;100.00
9717;BME280;4897;43.570;27.832;2023-02-02T13:21:58;98745.75;;;8.31;100.00
9717;BME280;4897;43.570;27.832;2023-02-02T13:24:28;98745.38;;;8.25;100.00
9717;BME280;4897;43.570;27.832;2023-02-02T13:26:57;98744.78;;;8.21;100.00
9717;BME280;4897;43.570;27.832;2023-02-02T13:29:31;98748.41;;;8.20;100.00
9717;BME280;4897;43.570;27.832;2023-02-02T13:32:04;98740.34;;;8.11;100.00
9717;BME280;4897;43.570;27.832;2023-02-02T13:34:40;98676.81;;;7.52;100.00
9717;BME280;4897;43.570;27.832;2023-02-02T13:37:15;98748.47;;;7.98;100.00